Time;durP1;ratioP1;P1;durP2;ratioP2;P2;SDS_P1;SDS_P2;PMS_P1;PMS_P2;Temp;Humidity;BMP_temperature;BMP_pressure;BME280_temperature;BME280_humidity;BME280_pressure;Samples;Min_cycle;Max_cycle;Signal;HPM_P1;HPM_P2
2022/07/21 00:00:59;;;;;;;14.48;6.30;;;;;;;;;;5035752;28;20099;-88
2022/07/21 00:03:25;;;;;;;11.32;7.22;;;;;;;;;;5030712;28;20037;-87
2022/07/21 00:05:54;;;;;;;11.65;6.30;;;;;;;;;;5053118;28;20044;-87
2022/07/21 00:08:20;;;;;;;10.68;6.13;;;;;;;;;;5053728;28;20060;-87
2022/07/21 00:10:46;;;;;;;10.00;6.07;;;;;;;;;;5034284;28;20063;-88
2022/07/21 00:13:12;;;;;;;10.93;6.05;;;;;;;;;;5033864;28;20059;-87
2022/07/21 00:15:38;;;;;;;10.13;6.65;;;;;;;;;;5049596;28;20044;-88
2022/07/21 00:18:05;;;;;;;11.73;6.13;;;;;;;;;;5016513;28;20452;-87
2022/07/21 00:20:31;;;;;;;9.60;6.45;;;;;;;;;;5051316;28;20033;-87
2022/07/21 00:22:57;;;;;;;13.73;7.03;;;;;;;;;;5049412;28;20057;-87
2022/07/21 00:25:23;;;;;;;16.30;7.57;;;;;;;;;;5028898;28;20064;-87
2022/07/21 00:27:49;;;;;;;17.63;9.05;;;;;;;;;;5046185;28;20095;-83
2022/07/21 00:30:16;;;;;;;15.65;7.88;;;;;;;;;;5045660;28;20470;-80
2022/07/21 00:32:42;;;;;;;16.98;7.50;;;;;;;;;;5050860;28;20080;-82
2022/07/21 00:35:09;;;;;;;12.43;7.55;;;;;;;;;;5053470;28;20148;-84
2022/07/21 00:37:35;;;;;;;13.88;7.40;;;;;;;;;;5054547;28;20102;-85
2022/07/21 00:40:01;;;;;;;14.30;7.18;;;;;;;;;;5053986;28;20072;-85
2022/07/21 00:42:28;;;;;;;22.88;7.90;;;;;;;;;;5052091;28;20052;-86
2022/07/21 00:44:55;;;;;;;16.10;8.23;;;;;;;;;;5054822;28;20128;-86
2022/07/21 00:47:21;;;;;;;18.55;9.02;;;;;;;;;;5052447;28;20067;-86
2022/07/21 00:49:48;;;;;;;15.82;8.23;;;;;;;;;;5054875;28;20577;-85
2022/07/21 00:52:14;;;;;;;14.63;8.18;;;;;;;;;;5051924;28;20059;-86
2022/07/21 00:54:43;;;;;;;15.65;8.55;;;;;;;;;;5035928;28;20453;-85
2022/07/21 00:57:10;;;;;;;12.55;9.10;;;;;;;;;;5051526;28;20069;-88
2022/07/21 00:59:36;;;;;;;13.10;8.68;;;;;;;;;;5054079;28;20102;-88
2022/07/21 01:02:03;;;;;;;15.45;8.75;;;;;;;;;;5051343;28;20052;-86
2022/07/21 01:04:29;;;;;;;14.48;8.20;;;;;;;;;;5055060;28;20041;-86
2022/07/21 01:06:55;;;;;;;13.45;8.85;;;;;;;;;;5056200;28;20037;-85
2022/07/21 01:09:21;;;;;;;17.13;8.77;;;;;;;;;;5034872;28;20069;-85
2022/07/21 01:11:48;;;;;;;14.43;9.23;;;;;;;;;;5050929;28;20175;-86
2022/07/21 01:14:14;;;;;;;14.60;9.57;;;;;;;;;;5020144;28;20112;-85
2022/07/21 01:16:43;;;;;;;15.75;8.35;;;;;;;;;;5045187;28;20051;-84
2022/07/21 01:19:10;;;;;;;17.33;9.70;;;;;;;;;;5050374;28;20037;-83
2022/07/21 01:21:37;;;;;;;14.75;9.07;;;;;;;;;;5053021;28;20041;-83
2022/07/21 01:24:04;;;;;;;14.10;8.85;;;;;;;;;;5036238;28;20044;-84
2022/07/21 01:26:30;;;;;;;21.45;10.00;;;;;;;;;;5051859;28;20052;-86
2022/07/21 01:28:57;;;;;;;16.48;10.27;;;;;;;;;;5053105;28;20037;-86
2022/07/21 01:31:23;;;;;;;16.10;10.15;;;;;;;;;;5053214;28;20049;-86
2022/07/21 01:33:49;;;;;;;13.20;9.18;;;;;;;;;;5054392;28;20498;-86
2022/07/21 01:36:15;;;;;;;18.85;10.68;;;;;;;;;;5054219;28;20037;-85
2022/07/21 01:41:29;;;;;;;16.50;10.23;;;;;;;;;;5051754;28;20045;-86
2022/07/21 01:43:58;;;;;;;20.38;10.55;;;;;;;;;;5054053;28;20045;-87
2022/07/21 01:46:25;;;;;;;20.25;10.35;;;;;;;;;;5035181;28;20123;-85
2022/07/21 01:48:53;;;;;;;17.95;10.07;;;;;;;;;;5033916;28;20426;-86
2022/07/21 01:51:19;;;;;;;16.00;10.35;;;;;;;;;;5053368;28;20379;-85
2022/07/21 01:53:45;;;;;;;16.23;10.25;;;;;;;;;;5051094;28;20491;-85
2022/07/21 01:56:11;;;;;;;16.92;10.13;;;;;;;;;;5022326;28;20110;-86
2022/07/21 01:58:38;;;;;;;16.17;10.43;;;;;;;;;;5052097;28;20041;-85
2022/07/21 02:01:04;;;;;;;13.88;9.65;;;;;;;;;;5052459;28;20037;-85
2022/07/21 02:03:30;;;;;;;16.92;10.43;;;;;;;;;;5052379;28;20077;-87
2022/07/21 02:06:05;;;;;;;17.45;10.82;;;;;;;;;;5036006;28;20049;-85
2022/07/21 02:08:32;;;;;;;18.55;11.13;;;;;;;;;;5054995;28;20052;-85
2022/07/21 02:11:01;;;;;;;17.88;11.15;;;;;;;;;;5056491;28;20041;-84
2022/07/21 02:13:27;;;;;;;15.95;10.95;;;;;;;;;;5056269;28;20120;-83
2022/07/21 02:15:53;;;;;;;15.80;11.48;;;;;;;;;;5054996;28;20051;-83
2022/07/21 02:18:20;;;;;;;15.48;10.77;;;;;;;;;;5053497;28;20106;-84
2022/07/21 02:20:47;;;;;;;17.30;11.88;;;;;;;;;;5054795;28;20096;-84
2022/07/21 02:23:13;;;;;;;16.88;11.68;;;;;;;;;;5053751;28;20060;-83
2022/07/21 02:25:39;;;;;;;15.80;11.45;;;;;;;;;;5036212;28;20048;-84
2022/07/21 02:28:05;;;;;;;15.38;11.43;;;;;;;;;;5057551;28;20041;-84
2022/07/21 02:30:31;;;;;;;15.70;11.55;;;;;;;;;;5053531;28;20176;-83
2022/07/21 02:32:57;;;;;;;18.25;11.35;;;;;;;;;;5050607;28;20081;-84
2022/07/21 02:35:23;;;;;;;17.63;11.98;;;;;;;;;;5053392;28;20080;-84
2022/07/21 02:37:49;;;;;;;18.33;11.77;;;;;;;;;;5053760;28;20110;-85
2022/07/21 02:40:16;;;;;;;17.42;11.70;;;;;;;;;;5053159;28;20442;-85
2022/07/21 02:42:42;;;;;;;16.92;12.30;;;;;;;;;;5053942;28;20128;-85
2022/07/21 02:45:08;;;;;;;18.55;12.05;;;;;;;;;;5037028;28;20037;-84
2022/07/21 02:47:47;;;;;;;15.73;11.73;;;;;;;;;;5040090;28;20467;-84
2022/07/21 02:50:13;;;;;;;21.48;12.27;;;;;;;;;;5017696;28;20391;-84
2022/07/21 02:52:39;;;;;;;16.63;11.90;;;;;;;;;;5047993;28;20053;-85
2022/07/21 02:55:06;;;;;;;17.02;12.32;;;;;;;;;;5053771;28;20103;-85
2022/07/21 02:57:32;;;;;;;16.98;13.00;;;;;;;;;;5037628;28;20132;-85
2022/07/21 02:59:58;;;;;;;15.27;12.27;;;;;;;;;;5050881;28;20401;-85
2022/07/21 03:02:24;;;;;;;16.65;12.82;;;;;;;;;;5031360;28;20124;-85
2022/07/21 03:04:50;;;;;;;15.50;12.45;;;;;;;;;;5053630;28;20475;-86
2022/07/21 03:07:18;;;;;;;18.73;13.15;;;;;;;;;;5053575;28;20040;-85
2022/07/21 03:09:45;;;;;;;18.58;13.95;;;;;;;;;;5036080;28;20103;-85
2022/07/21 03:12:12;;;;;;;19.00;13.60;;;;;;;;;;5039051;28;21301;-86
2022/07/21 03:14:38;;;;;;;17.17;12.82;;;;;;;;;;5058245;28;20045;-85
2022/07/21 03:17:04;;;;;;;18.40;13.70;;;;;;;;;;5055465;28;20041;-86
2022/07/21 03:19:30;;;;;;;19.90;13.50;;;;;;;;;;5058660;28;20041;-85
2022/07/21 03:21:56;;;;;;;16.27;13.73;;;;;;;;;;5057196;28;20485;-85
2022/07/21 03:24:22;;;;;;;19.40;13.48;;;;;;;;;;5054636;28;20063;-86
2022/07/21 03:26:48;;;;;;;19.05;13.55;;;;;;;;;;5058209;28;20041;-86
2022/07/21 03:29:14;;;;;;;21.52;14.18;;;;;;;;;;5056801;28;20482;-86
2022/07/21 03:31:40;;;;;;;21.23;14.68;;;;;;;;;;5055297;28;20049;-85
2022/07/21 03:34:06;;;;;;;20.40;14.10;;;;;;;;;;5038811;28;20076;-85
2022/07/21 03:36:32;;;;;;;17.20;13.98;;;;;;;;;;5056416;28;20053;-85
2022/07/21 03:38:58;;;;;;;18.92;14.27;;;;;;;;;;5053467;28;20041;-84
2022/07/21 03:41:24;;;;;;;19.13;13.70;;;;;;;;;;5040752;28;20041;-85
2022/07/21 03:43:51;;;;;;;24.73;14.30;;;;;;;;;;5058144;28;20048;-85
2022/07/21 03:46:19;;;;;;;21.45;13.80;;;;;;;;;;5024194;28;20057;-84
2022/07/21 03:48:45;;;;;;;19.02;13.65;;;;;;;;;;5054137;28;20124;-85
2022/07/21 03:51:11;;;;;;;21.05;14.05;;;;;;;;;;5021503;28;20068;-85
2022/07/21 03:53:37;;;;;;;19.30;13.70;;;;;;;;;;5026286;28;20060;-85
2022/07/21 03:56:04;;;;;;;20.65;14.25;;;;;;;;;;5053415;28;20037;-85
2022/07/21 03:58:30;;;;;;;19.00;13.48;;;;;;;;;;5054727;28;20056;-85
2022/07/21 04:00:56;;;;;;;20.35;13.98;;;;;;;;;;5036525;28;20044;-85
2022/07/21 04:03:21;;;;;;;19.60;13.57;;;;;;;;;;5052744;28;20100;-85
2022/07/21 04:05:47;;;;;;;17.25;13.10;;;;;;;;;;5043562;28;20495;-85
2022/07/21 04:08:14;;;;;;;20.52;13.85;;;;;;;;;;5056620;28;20040;-85
2022/07/21 04:10:40;;;;;;;21.83;15.05;;;;;;;;;;5039013;28;20049;-85
2022/07/21 04:13:09;;;;;;;19.10;15.60;;;;;;;;;;5038628;28;20067;-86
2022/07/21 04:15:35;;;;;;;20.98;15.60;;;;;;;;;;5039994;28;20057;-86
2022/07/21 04:18:01;;;;;;;21.75;16.17;;;;;;;;;;5054986;28;20487;-85
2022/07/21 04:20:27;;;;;;;20.80;15.20;;;;;;;;;;5057670;28;20044;-85
2022/07/21 04:22:54;;;;;;;19.08;16.33;;;;;;;;;;5056194;28;20065;-85
2022/07/21 04:25:20;;;;;;;21.17;16.98;;;;;;;;;;5057281;28;20052;-85
2022/07/21 04:27:46;;;;;;;21.67;16.20;;;;;;;;;;5056488;28;20037;-86
2022/07/21 04:30:14;;;;;;;18.92;15.82;;;;;;;;;;5057807;28;20491;-86
2022/07/21 04:32:40;;;;;;;23.33;16.70;;;;;;;;;;5048901;28;20407;-85
2022/07/21 04:35:07;;;;;;;23.98;18.20;;;;;;;;;;5039902;28;20131;-85
2022/07/21 04:37:33;;;;;;;25.35;19.23;;;;;;;;;;5056475;28;20136;-85
2022/07/21 04:39:59;;;;;;;22.17;18.77;;;;;;;;;;5023799;28;20049;-85
2022/07/21 04:42:25;;;;;;;21.85;18.52;;;;;;;;;;5056399;28;20487;-86
2022/07/21 04:44:56;;;;;;;24.05;19.27;;;;;;;;;;5058291;28;20041;-86
2022/07/21 04:47:22;;;;;;;24.40;20.13;;;;;;;;;;5056413;28;20053;-86
2022/07/21 04:49:48;;;;;;;24.42;20.33;;;;;;;;;;5041650;28;20059;-85
2022/07/21 04:52:14;;;;;;;25.95;21.73;;;;;;;;;;5059029;28;20037;-86
2022/07/21 04:54:40;;;;;;;24.42;20.13;;;;;;;;;;5055608;28;20076;-86
2022/07/21 04:57:06;;;;;;;24.27;21.70;;;;;;;;;;5053380;28;20045;-86
2022/07/21 04:59:33;;;;;;;25.98;23.17;;;;;;;;;;5066115;28;20061;-85
2022/07/21 05:01:59;;;;;;;25.25;22.45;;;;;;;;;;5059500;28;20068;-86
2022/07/21 05:04:25;;;;;;;21.27;19.15;;;;;;;;;;5059683;28;20041;-85
2022/07/21 05:06:52;;;;;;;24.40;21.90;;;;;;;;;;5053359;28;20487;-86
2022/07/21 05:09:18;;;;;;;23.48;21.05;;;;;;;;;;5053161;28;20049;-85
2022/07/21 05:11:44;;;;;;;21.73;19.48;;;;;;;;;;5041453;28;20060;-85
2022/07/21 05:14:10;;;;;;;20.83;18.58;;;;;;;;;;5039740;28;20049;-84
2022/07/21 05:16:36;;;;;;;18.75;16.80;;;;;;;;;;5057187;28;20052;-85
2022/07/21 05:19:02;;;;;;;19.20;16.58;;;;;;;;;;5041409;28;20118;-85
2022/07/21 05:21:28;;;;;;;18.75;16.40;;;;;;;;;;5052215;28;20082;-85
2022/07/21 05:23:54;;;;;;;19.08;17.00;;;;;;;;;;5055677;28;20047;-84
2022/07/21 05:26:20;;;;;;;19.85;17.83;;;;;;;;;;5039388;28;20059;-85
2022/07/21 05:28:46;;;;;;;20.27;17.63;;;;;;;;;;5056598;28;20056;-86
2022/07/21 05:31:12;;;;;;;22.48;18.67;;;;;;;;;;5039210;28;20475;-87
2022/07/21 05:33:38;;;;;;;22.25;19.85;;;;;;;;;;5038418;28;20445;-87
2022/07/21 05:36:05;;;;;;;21.02;18.63;;;;;;;;;;5055985;28;20540;-86
2022/07/21 05:38:31;;;;;;;21.25;19.08;;;;;;;;;;5053572;28;20045;-86
2022/07/21 05:40:59;;;;;;;23.58;20.77;;;;;;;;;;5024188;28;20049;-85
2022/07/21 05:43:25;;;;;;;23.02;19.45;;;;;;;;;;5037721;28;20083;-83
2022/07/21 05:45:51;;;;;;;22.48;20.17;;;;;;;;;;5053942;28;20057;-83
2022/07/21 05:48:18;;;;;;;20.40;18.17;;;;;;;;;;5052469;28;20131;-82
2022/07/21 05:50:44;;;;;;;25.73;21.95;;;;;;;;;;5036392;28;20049;-83
2022/07/21 05:53:10;;;;;;;24.83;22.38;;;;;;;;;;5036574;28;20044;-84
2022/07/21 05:55:36;;;;;;;23.90;21.30;;;;;;;;;;5054788;28;20049;-83
2022/07/21 05:58:02;;;;;;;24.35;21.85;;;;;;;;;;5031411;28;20037;-83
2022/07/21 06:00:28;;;;;;;23.90;21.50;;;;;;;;;;5045254;28;20547;-83
2022/07/21 06:02:54;;;;;;;24.15;21.58;;;;;;;;;;5050817;28;20068;-84
2022/07/21 06:05:21;;;;;;;23.10;20.52;;;;;;;;;;5046458;28;20048;-83
2022/07/21 06:07:48;;;;;;;25.27;22.77;;;;;;;;;;5048513;28;20455;-82
2022/07/21 06:10:14;;;;;;;22.17;20.02;;;;;;;;;;5035880;28;20131;-82
2022/07/21 06:12:40;;;;;;;25.08;22.60;;;;;;;;;;5053635;28;20049;-83
2022/07/21 06:15:07;;;;;;;24.38;21.80;;;;;;;;;;5054648;28;20132;-82
2022/07/21 06:17:39;;;;;;;24.48;22.02;;;;;;;;;;5055728;28;20498;-82
2022/07/21 06:20:06;;;;;;;27.48;24.65;;;;;;;;;;5054235;28;20041;-83
2022/07/21 06:22:32;;;;;;;26.73;24.05;;;;;;;;;;5031536;28;20075;-83
2022/07/21 06:24:58;;;;;;;26.92;23.35;;;;;;;;;;5048969;28;20470;-82
2022/07/21 06:27:24;;;;;;;24.98;22.58;;;;;;;;;;5042140;28;20044;-82
2022/07/21 06:29:50;;;;;;;24.70;22.10;;;;;;;;;;5052538;28;20556;-83
2022/07/21 06:32:16;;;;;;;23.00;20.70;;;;;;;;;;5035902;28;20044;-82
2022/07/21 06:34:42;;;;;;;22.38;19.83;;;;;;;;;;5054705;28;20131;-83
2022/07/21 06:37:08;;;;;;;22.63;20.50;;;;;;;;;;5054087;28;20124;-83
2022/07/21 06:39:39;;;;;;;23.05;20.85;;;;;;;;;;5054530;28;20068;-82
2022/07/21 06:42:05;;;;;;;21.25;18.92;;;;;;;;;;5054380;28;20048;-81
2022/07/21 06:44:31;;;;;;;24.00;21.70;;;;;;;;;;5053765;28;20037;-82
2022/07/21 06:46:57;;;;;;;21.42;19.25;;;;;;;;;;5053523;28;20053;-82
2022/07/21 06:49:23;;;;;;;21.40;19.13;;;;;;;;;;5053419;28;20063;-82
2022/07/21 06:51:49;;;;;;;23.08;19.77;;;;;;;;;;5052912;28;20123;-81
2022/07/21 06:54:15;;;;;;;20.35;18.27;;;;;;;;;;5053707;28;20049;-81
2022/07/21 06:56:41;;;;;;;22.42;20.20;;;;;;;;;;5051461;28;20048;-82
2022/07/21 06:59:07;;;;;;;22.58;20.38;;;;;;;;;;5052824;28;20497;-81
2022/07/21 07:01:35;;;;;;;22.50;20.20;;;;;;;;;;5050785;28;20076;-81
2022/07/21 07:04:01;;;;;;;22.20;19.90;;;;;;;;;;5033730;28;20050;-82
2022/07/21 07:06:27;;;;;;;24.30;21.80;;;;;;;;;;5049432;28;20453;-81
2022/07/21 07:08:53;;;;;;;23.48;21.17;;;;;;;;;;5053159;28;20041;-81
2022/07/21 07:11:20;;;;;;;24.08;21.58;;;;;;;;;;5053121;28;20128;-81
2022/07/21 07:13:45;;;;;;;24.35;21.90;;;;;;;;;;5018343;28;20052;-82
2022/07/21 07:16:11;;;;;;;25.05;22.48;;;;;;;;;;5053367;28;20041;-81
2022/07/21 07:18:38;;;;;;;24.88;22.48;;;;;;;;;;5052389;28;20051;-82
2022/07/21 07:21:04;;;;;;;24.40;21.83;;;;;;;;;;5038322;28;20037;-82
2022/07/21 07:23:30;;;;;;;24.13;21.75;;;;;;;;;;5055438;28;20103;-80
2022/07/21 07:25:56;;;;;;;24.55;22.13;;;;;;;;;;5056925;28;20052;-83
2022/07/21 07:28:22;;;;;;;24.25;21.95;;;;;;;;;;5055441;28;20036;-85
2022/07/21 07:30:49;;;;;;;24.27;21.98;;;;;;;;;;5053957;28;20099;-85
2022/07/21 07:33:15;;;;;;;23.63;21.30;;;;;;;;;;5056238;28;20525;-85
2022/07/21 07:35:41;;;;;;;25.90;23.45;;;;;;;;;;5055322;28;20051;-84
2022/07/21 07:38:07;;;;;;;26.50;23.77;;;;;;;;;;5054207;28;20041;-85
2022/07/21 07:40:36;;;;;;;25.73;23.13;;;;;;;;;;5055321;28;20049;-84
2022/07/21 07:43:02;;;;;;;26.50;23.92;;;;;;;;;;5033636;28;20601;-84
2022/07/21 07:45:28;;;;;;;26.63;24.02;;;;;;;;;;5052360;28;20487;-84
2022/07/21 07:47:54;;;;;;;22.63;20.33;;;;;;;;;;5054599;28;20045;-84
2022/07/21 07:50:20;;;;;;;26.13;23.58;;;;;;;;;;5055990;28;20088;-84
2022/07/21 07:52:46;;;;;;;23.13;20.83;;;;;;;;;;5057373;28;20491;-84
2022/07/21 07:55:13;;;;;;;22.25;20.15;;;;;;;;;;5022183;28;20095;-85
2022/07/21 07:57:40;;;;;;;20.27;18.25;;;;;;;;;;5041200;28;20045;-85
2022/07/21 08:00:09;;;;;;;22.88;20.50;;;;;;;;;;5041630;28;20053;-85
2022/07/21 08:02:35;;;;;;;22.25;20.05;;;;;;;;;;5061013;28;20052;-86
2022/07/21 08:05:01;;;;;;;19.30;16.63;;;;;;;;;;5040235;28;20407;-86
2022/07/21 08:07:27;;;;;;;19.75;17.83;;;;;;;;;;5054416;28;20395;-87
2022/07/21 08:09:53;;;;;;;18.83;16.95;;;;;;;;;;5026083;28;20052;-86
2022/07/21 08:12:22;;;;;;;20.27;17.95;;;;;;;;;;5040170;28;20045;-87
2022/07/21 08:14:48;;;;;;;19.73;17.83;;;;;;;;;;5039841;28;20045;-86
2022/07/21 08:17:16;;;;;;;21.50;19.33;;;;;;;;;;5058883;28;20075;-87
2022/07/21 08:19:47;;;;;;;20.33;18.42;;;;;;;;;;5063288;28;20051;-85
2022/07/21 08:22:16;;;;;;;20.88;18.75;;;;;;;;;;5055635;28;20105;-86
2022/07/21 08:24:44;;;;;;;22.48;20.13;;;;;;;;;;5040917;28;20557;-86
2022/07/21 08:27:17;;;;;;;24.20;21.92;;;;;;;;;;5059402;28;20072;-86
2022/07/21 08:29:46;;;;;;;20.63;18.48;;;;;;;;;;5062114;28;20085;-86
2022/07/21 08:32:17;;;;;;;23.77;21.38;;;;;;;;;;5065861;28;20075;-86
2022/07/21 08:34:55;;;;;;;21.95;19.85;;;;;;;;;;5052064;28;20049;-85
2022/07/21 08:37:21;;;;;;;23.05;20.75;;;;;;;;;;5064122;28;20132;-86
2022/07/21 08:39:57;;;;;;;;;;;;;;;;;;;;;
2022/07/21 08:43:01;;;;;;;;;;;;;;;;;;;;;
2022/07/21 08:45:29;;;;;;;;;;;;;;;;;;;;;
2022/07/21 08:48:05;;;;;;;23.20;21.05;;;;;;;;;;5071285;28;20063;-86
2022/07/21 08:50:44;;;;;;;21.00;19.00;;;;;;;;;;5072942;28;20051;-87
2022/07/21 08:53:26;;;;;;;19.63;17.70;;;;;;;;;;5060684;28;20049;-86
2022/07/21 08:56:01;;;;;;;20.02;18.10;;;;;;;;;;5064970;28;20044;-87
2022/07/21 08:58:30;;;;;;;20.75;18.65;;;;;;;;;;5045023;28;20041;-87
2022/07/21 09:01:16;;;;;;;21.70;19.67;;;;;;;;;;5061888;28;20053;-87
2022/07/21 09:03:48;;;;;;;20.98;19.10;;;;;;;;;;5061014;28;20039;-90
2022/07/21 09:06:15;;;;;;;21.45;19.55;;;;;;;;;;5031990;28;20033;-90
2022/07/21 09:08:56;;;;;;;;;;;;;;;;;;;;;
2022/07/21 09:11:26;;;;;;;20.65;18.70;;;;;;;;;;5069237;28;20048;-90
2022/07/21 09:14:10;;;;;;;22.45;19.63;;;;;;;;;;5068256;28;20080;-90
2022/07/21 09:16:41;;;;;;;20.88;18.88;;;;;;;;;;5069000;28;20104;-90
2022/07/21 09:19:16;;;;;;;23.37;20.93;;;;;;;;;;5062020;28;20048;-90
2022/07/21 09:21:44;;;;;;;23.70;21.48;;;;;;;;;;5056378;28;20360;-90
2022/07/21 09:24:38;;;;;;;23.38;21.25;;;;;;;;;;5061549;28;20503;-88
2022/07/21 09:27:06;;;;;;;23.67;21.42;;;;;;;;;;5049130;28;20040;-89
2022/07/21 09:29:35;;;;;;;22.23;20.05;;;;;;;;;;5055784;28;20049;-88
2022/07/21 09:32:15;;;;;;;22.55;20.33;;;;;;;;;;5049965;28;20041;-88
2022/07/21 09:34:41;;;;;;;22.30;20.10;;;;;;;;;;5059956;28;20433;-89
2022/07/21 09:37:08;;;;;;;19.75;17.83;;;;;;;;;;5037735;28;20094;-89
2022/07/21 09:39:54;;;;;;;22.30;20.00;;;;;;;;;;5065386;28;20056;-87
2022/07/21 09:42:20;;;;;;;20.58;18.42;;;;;;;;;;5051751;28;20052;-88
2022/07/21 09:44:48;;;;;;;19.15;17.25;;;;;;;;;;5059813;28;20032;-87
2022/07/21 09:47:15;;;;;;;18.20;16.50;;;;;;;;;;5040686;28;20067;-88
2022/07/21 09:49:42;;;;;;;20.27;18.27;;;;;;;;;;5024642;28;20135;-88
2022/07/21 09:52:21;;;;;;;19.55;17.65;;;;;;;;;;5039765;28;20100;-87
2022/07/21 09:54:47;;;;;;;20.42;18.30;;;;;;;;;;5055868;28;20437;-88
2022/07/21 09:57:14;;;;;;;20.17;17.65;;;;;;;;;;5052527;28;20047;-89
2022/07/21 09:59:43;;;;;;;20.15;17.95;;;;;;;;;;5036108;28;20368;-87
2022/07/21 10:02:11;;;;;;;19.13;17.13;;;;;;;;;;5036455;28;20056;-88
2022/07/21 10:04:38;;;;;;;18.95;17.05;;;;;;;;;;5039151;28;20056;-88
2022/07/21 10:07:04;;;;;;;17.90;16.05;;;;;;;;;;5054357;28;20064;-88
2022/07/21 10:09:30;;;;;;;21.83;16.83;;;;;;;;;;5038712;28;20055;-88
2022/07/21 10:11:56;;;;;;;21.77;17.48;;;;;;;;;;5053877;28;20037;-89
2022/07/21 10:14:22;;;;;;;18.92;17.02;;;;;;;;;;5055728;28;20057;-88
2022/07/21 10:16:49;;;;;;;18.95;16.92;;;;;;;;;;5053346;28;20057;-87
2022/07/21 10:19:23;;;;;;;19.80;17.58;;;;;;;;;;5053712;28;20056;-89
2022/07/21 10:21:56;;;;;;;19.90;17.85;;;;;;;;;;5033488;28;20509;-88
2022/07/21 10:24:22;;;;;;;20.80;18.65;;;;;;;;;;5056759;28;20483;-88
2022/07/21 10:27:00;;;;;;;20.75;17.45;;;;;;;;;;5047880;28;20068;-87
2022/07/21 10:29:45;;;;;;;19.48;17.48;;;;;;;;;;5054368;28;20049;-87
2022/07/21 10:32:11;;;;;;;20.63;18.08;;;;;;;;;;5044902;28;20490;-88
2022/07/21 10:34:38;;;;;;;20.13;18.13;;;;;;;;;;5024277;28;20114;-87
2022/07/21 10:37:04;;;;;;;21.80;19.50;;;;;;;;;;5055299;28;20049;-91
2022/07/21 10:39:33;;;;;;;24.08;21.73;;;;;;;;;;5037550;28;20052;-87
2022/07/21 10:42:06;;;;;;;24.90;22.20;;;;;;;;;;5035839;28;20080;-89
2022/07/21 10:44:33;;;;;;;25.30;22.67;;;;;;;;;;5055308;28;20080;-88
2022/07/21 10:47:12;;;;;;;24.10;21.73;;;;;;;;;;5053480;28;20055;-86
2022/07/21 10:49:52;;;;;;;24.73;22.13;;;;;;;;;;5054128;28;20471;-87
2022/07/21 10:52:39;;;;;;;23.63;21.25;;;;;;;;;;5040419;28;20478;-87
2022/07/21 10:55:17;;;;;;;25.10;22.10;;;;;;;;;;5042474;28;20083;-87
2022/07/21 10:57:46;;;;;;;24.00;21.58;;;;;;;;;;5046292;28;20063;-89
2022/07/21 11:00:36;;;;;;;22.95;20.60;;;;;;;;;;5054602;28;20124;-87
2022/07/21 11:03:03;;;;;;;24.88;22.38;;;;;;;;;;5018764;28;20048;-89
2022/07/21 11:05:31;;;;;;;22.73;20.33;;;;;;;;;;5036870;28;20049;-87
2022/07/21 11:08:11;;;;;;;26.23;23.60;;;;;;;;;;5036122;28;20085;-89
2022/07/21 11:10:42;;;;;;;24.73;22.23;;;;;;;;;;5029079;28;20041;-88
2022/07/21 11:13:08;;;;;;;;;;;;;;;;;;5050623;28;20045;-86
2022/07/21 11:15:44;;;;;;;27.65;24.85;;;;;;;;;;5050282;28;19960;-86
2022/07/21 11:18:11;;;;;;;27.80;25.00;;;;;;;;;;5050345;28;20457;-87
2022/07/21 11:20:37;;;;;;;27.88;25.08;;;;;;;;;;5029867;28;20057;-87
2022/07/21 11:23:03;;;;;;;29.20;26.30;;;;;;;;;;5048395;28;20044;-88
2022/07/21 11:25:30;;;;;;;28.50;25.65;;;;;;;;;;5049676;28;20037;-89
2022/07/21 11:27:56;;;;;;;28.83;25.88;;;;;;;;;;5053660;28;20037;-87
2022/07/21 11:30:23;;;;;;;78.18;27.27;;;;;;;;;;5051893;28;20071;-87
2022/07/21 11:32:49;;;;;;;63.97;28.15;;;;;;;;;;5035884;28;20132;-88
2022/07/21 11:35:15;;;;;;;37.13;26.42;;;;;;;;;;5051996;28;20044;-86
2022/07/21 11:37:42;;;;;;;27.13;24.23;;;;;;;;;;5057436;28;20127;-86
2022/07/21 11:40:16;;;;;;;25.15;22.55;;;;;;;;;;5056557;28;20091;-87
2022/07/21 11:42:43;;;;;;;28.25;23.90;;;;;;;;;;5048105;28;20126;-88
2022/07/21 11:45:10;;;;;;;28.15;22.35;;;;;;;;;;5030602;28;20045;-87
2022/07/21 11:47:37;;;;;;;25.58;22.92;;;;;;;;;;5052762;28;20069;-88
2022/07/21 11:50:06;;;;;;;25.08;22.48;;;;;;;;;;5053102;28;20049;-90
2022/07/21 11:52:33;;;;;;;25.52;22.92;;;;;;;;;;5033904;28;20197;-89
2022/07/21 11:55:00;;;;;;;23.02;20.67;;;;;;;;;;5048423;28;20044;-86
2022/07/21 11:57:27;;;;;;;23.77;21.27;;;;;;;;;;5049666;28;20446;-88
2022/07/21 11:59:53;;;;;;;23.40;20.98;;;;;;;;;;5049315;28;20037;-88
2022/07/21 12:02:20;;;;;;;24.17;21.55;;;;;;;;;;5048684;28;20113;-88
2022/07/21 12:04:48;;;;;;;23.90;21.42;;;;;;;;;;5050140;28;20048;-89
2022/07/21 12:07:23;;;;;;;23.00;20.63;;;;;;;;;;5036350;28;20042;-90
2022/07/21 12:09:53;;;;;;;19.35;15.52;;;;;;;;;;5054903;28;20049;-90
2022/07/21 12:12:39;;;;;;;12.88;11.40;;;;;;;;;;5050892;28;20053;-88
2022/07/21 12:15:12;;;;;;;11.82;10.18;;;;;;;;;;5048019;28;20052;-90
2022/07/21 12:17:39;;;;;;;11.15;9.13;;;;;;;;;;5047747;28;20751;-88
2022/07/21 12:20:06;;;;;;;11.95;10.43;;;;;;;;;;5050607;28;20045;-87
2022/07/21 12:22:33;;;;;;;13.85;11.75;;;;;;;;;;5050007;28;20048;-88
2022/07/21 12:24:59;;;;;;;14.13;11.40;;;;;;;;;;5049014;28;20045;-88
2022/07/21 12:27:25;;;;;;;19.08;17.13;;;;;;;;;;5051161;28;20052;-89
2022/07/21 12:29:51;;;;;;;19.08;16.67;;;;;;;;;;5047971;28;20045;-88
2022/07/21 12:32:37;;;;;;;20.65;18.00;;;;;;;;;;5049686;28;20045;-89
2022/07/21 12:35:04;;;;;;;21.40;19.20;;;;;;;;;;5048146;28;20098;-87
2022/07/21 12:37:48;;;;;;;22.42;20.25;;;;;;;;;;5038717;28;20052;-91
2022/07/21 12:40:14;;;;;;;25.17;22.67;;;;;;;;;;5053109;28;20565;-90
2022/07/21 12:42:41;;;;;;;30.35;27.38;;;;;;;;;;5050097;28;20430;-89
2022/07/21 12:45:13;;;;;;;31.60;28.50;;;;;;;;;;5046201;28;20073;-88
2022/07/21 12:47:39;;;;;;;33.47;30.10;;;;;;;;;;5047457;28;20045;-87
2022/07/21 12:50:07;;;;;;;31.17;28.27;;;;;;;;;;5052611;28;20053;-89
2022/07/21 12:52:33;;;;;;;32.45;29.40;;;;;;;;;;5023425;28;20041;-89
2022/07/21 12:55:00;;;;;;;33.33;30.23;;;;;;;;;;5048516;28;20041;-90
2022/07/21 12:57:30;;;;;;;33.97;30.63;;;;;;;;;;5051400;28;20048;-88
2022/07/21 12:59:59;;;;;;;34.58;30.90;;;;;;;;;;5026588;28;20426;-89
2022/07/21 13:02:28;;;;;;;32.80;29.50;;;;;;;;;;5028738;28;20044;-88
2022/07/21 13:04:54;;;;;;;32.58;29.33;;;;;;;;;;5044140;28;20047;-90
2022/07/21 13:07:20;;;;;;;32.63;29.50;;;;;;;;;;5032161;28;20053;-90
2022/07/21 13:09:46;;;;;;;29.33;26.45;;;;;;;;;;5045700;28;20038;-89
2022/07/21 13:12:13;;;;;;;30.42;27.35;;;;;;;;;;5048485;28;20053;-87
2022/07/21 13:14:40;;;;;;;28.83;26.02;;;;;;;;;;5033430;28;20095;-89
2022/07/21 13:17:06;;;;;;;23.02;20.73;;;;;;;;;;5044262;28;20088;-87
2022/07/21 13:19:32;;;;;;;15.70;14.20;;;;;;;;;;5048450;28;20410;-89
2022/07/21 13:21:58;;;;;;;10.73;9.35;;;;;;;;;;5030437;28;20044;-87
2022/07/21 13:24:47;;;;;;;11.80;9.15;;;;;;;;;;5030664;28;20044;-88
2022/07/21 13:27:23;;;;;;;;;;;;;;;;;;;;;
2022/07/21 13:30:02;;;;;;;;;;;;;;;;;;;;;
2022/07/21 13:38:34;;;;;;;7.45;5.50;;;;;;;;;;5019563;28;20073;-89
2022/07/21 13:41:11;;;;;;;7.60;6.43;;;;;;;;;;5016057;28;20063;-89
2022/07/21 13:44:07;;;;;;;;;;;;;;;;;;;;;
2022/07/21 13:46:33;;;;;;;7.97;6.38;;;;;;;;;;5044767;28;20068;-88
2022/07/21 13:49:02;;;;;;;9.88;8.32;;;;;;;;;;5048514;28;20060;-90
2022/07/21 13:54:20;;;;;;;9.60;8.60;;;;;;;;;;5029713;28;20495;-89
2022/07/21 13:56:57;;;;;;;;;;;;;;;;;;;;;
2022/07/21 13:59:23;;;;;;;9.45;8.38;;;;;;;;;;5049477;28;20564;-86
2022/07/21 14:01:49;;;;;;;9.82;8.75;;;;;;;;;;5045880;28;20499;-88
2022/07/21 14:04:15;;;;;;;11.55;9.25;;;;;;;;;;5047725;28;20041;-86
2022/07/21 14:06:46;;;;;;;9.88;8.30;;;;;;;;;;5050166;28;20102;-85
2022/07/21 14:09:12;;;;;;;9.25;7.95;;;;;;;;;;5043343;28;20056;-85
2022/07/21 14:11:57;;;;;;;10.63;8.85;;;;;;;;;;5044090;28;20044;-86
2022/07/21 14:14:26;;;;;;;10.32;8.35;;;;;;;;;;5048353;28;20050;-85
2022/07/21 14:16:53;;;;;;;9.30;8.02;;;;;;;;;;5049916;28;20049;-86
2022/07/21 14:19:19;;;;;;;10.57;8.13;;;;;;;;;;5046971;28;20068;-85
2022/07/21 14:21:45;;;;;;;9.52;7.20;;;;;;;;;;5045822;28;20037;-83
2022/07/21 14:26:56;;;;;;;8.50;7.60;;;;;;;;;;5045154;28;20903;-83
2022/07/21 14:29:22;;;;;;;9.93;7.97;;;;;;;;;;5049127;28;20041;-82
2022/07/21 14:31:49;;;;;;;8.07;6.45;;;;;;;;;;5046316;28;20068;-83
2022/07/21 14:34:15;;;;;;;7.60;5.65;;;;;;;;;;5049794;28;20517;-84
2022/07/21 14:36:41;;;;;;;7.10;5.40;;;;;;;;;;5027014;28;20095;-82
2022/07/21 14:39:07;;;;;;;8.07;4.95;;;;;;;;;;5033087;28;20053;-84
2022/07/21 14:41:34;;;;;;;6.22;4.88;;;;;;;;;;5047027;28;20517;-83
2022/07/21 14:44:00;;;;;;;7.15;4.60;;;;;;;;;;5042322;28;20049;-85
2022/07/21 14:46:26;;;;;;;7.07;5.35;;;;;;;;;;5042868;28;20045;-83
2022/07/21 14:48:52;;;;;;;6.90;5.40;;;;;;;;;;5048604;28;20125;-83